createdAt,value
2022-12-04T00:01:08.199Z,18.98
2022-12-04T00:03:35.228Z,19.40
2022-12-04T00:06:07.164Z,19.30
2022-12-04T00:08:34.316Z,18.98
2022-12-04T00:11:01.571Z,18.70
2022-12-04T00:13:28.452Z,19.38
2022-12-04T00:15:55.304Z,19.33
2022-12-04T00:18:22.263Z,19.48
2022-12-04T00:20:49.840Z,19.35
2022-12-04T00:23:16.849Z,20.38
2022-12-04T00:25:48.580Z,19.30
2022-12-04T00:28:17.233Z,18.60
2022-12-04T00:30:47.146Z,20.00
2022-12-04T00:33:14.167Z,19.75
2022-12-04T00:35:41.132Z,19.27
2022-12-04T00:38:08.083Z,19.02
2022-12-04T00:40:34.929Z,18.38
2022-12-04T00:43:01.860Z,20.48
2022-12-04T00:45:28.754Z,19.52
2022-12-04T00:47:55.698Z,20.70
2022-12-04T00:50:22.572Z,18.35
2022-12-04T00:52:49.408Z,19.73
2022-12-04T00:55:16.282Z,18.40
2022-12-04T00:57:43.171Z,18.90
2022-12-04T01:00:10.330Z,20.75
2022-12-04T01:02:37.275Z,19.38
2022-12-04T01:05:04.481Z,18.77
2022-12-04T01:07:31.431Z,19.95
2022-12-04T01:09:58.340Z,19.77
2022-12-04T01:12:25.321Z,18.60
2022-12-04T01:14:52.279Z,18.95
2022-12-04T01:17:19.185Z,18.60
2022-12-04T01:19:46.026Z,18.92
2022-12-04T01:22:12.882Z,19.60
2022-12-04T01:24:40.536Z,17.77
2022-12-04T01:27:07.888Z,20.05
2022-12-04T01:29:34.826Z,18.75
2022-12-04T01:32:01.848Z,17.63
2022-12-04T01:34:28.702Z,19.00
2022-12-04T01:36:55.498Z,20.35
2022-12-04T01:39:22.420Z,19.23
2022-12-04T01:41:49.466Z,18.88
2022-12-04T01:44:23.466Z,19.48
2022-12-04T01:46:58.525Z,19.85
2022-12-04T01:49:47.989Z,20.15
2022-12-04T01:52:26.609Z,19.20
2022-12-04T01:54:59.125Z,19.00
2022-12-04T01:57:29.151Z,18.63
2022-12-04T02:00:00.423Z,19.83
2022-12-04T02:02:34.699Z,18.85
2022-12-04T02:05:12.139Z,19.02
2022-12-04T02:07:41.234Z,19.42
2022-12-04T02:10:09.982Z,19.42
2022-12-04T02:13:10.766Z,19.40
2022-12-04T02:15:58.940Z,19.50
2022-12-04T02:18:41.100Z,19.52
2022-12-04T02:21:19.575Z,19.63
2022-12-04T02:24:22.283Z,20.15
2022-12-04T02:27:18.071Z,20.73
2022-12-04T02:29:44.885Z,18.95
2022-12-04T02:32:24.036Z,19.67
2022-12-04T02:34:59.850Z,20.30
2022-12-04T02:37:37.727Z,19.98
2022-12-04T02:40:35.358Z,20.42
2022-12-04T02:43:12.692Z,20.08
2022-12-04T02:45:45.343Z,19.55
2022-12-04T02:48:16.463Z,21.02
2022-12-04T02:50:44.249Z,20.08
2022-12-04T02:53:16.478Z,19.02
2022-12-04T02:55:53.900Z,19.98
2022-12-04T02:58:47.030Z,19.42
2022-12-04T03:01:21.684Z,20.63
2022-12-04T03:03:52.282Z,19.27
2022-12-04T03:06:21.998Z,20.35
2022-12-04T03:08:54.792Z,19.73
2022-12-04T03:11:21.728Z,21.17
2022-12-04T03:13:54.836Z,21.17
2022-12-04T03:16:34.957Z,17.52
2022-12-04T03:19:07.521Z,21.10
2022-12-04T03:21:40.818Z,20.90
2022-12-04T03:24:10.725Z,20.73
2022-12-04T03:26:46.520Z,19.10
2022-12-04T03:29:28.017Z,20.25
2022-12-04T03:32:16.140Z,20.02
2022-12-04T03:34:58.154Z,20.00
2022-12-04T03:37:30.783Z,21.02
2022-12-04T03:40:04.026Z,20.60
2022-12-04T03:42:42.422Z,20.13
2022-12-04T03:45:40.156Z,19.40
2022-12-04T03:48:22.681Z,21.15
2022-12-04T03:51:01.340Z,20.88
2022-12-04T03:53:41.773Z,21.08
2022-12-04T03:56:16.469Z,21.42
2022-12-04T03:58:48.815Z,19.52
2022-12-04T04:01:20.320Z,20.35
2022-12-04T04:03:50.731Z,21.00
2022-12-04T04:06:37.781Z,18.63
2022-12-04T04:09:14.363Z,20.65
2022-12-04T04:12:06.672Z,20.13
2022-12-04T04:15:03.635Z,19.52
2022-12-04T04:17:53.382Z,18.83
2022-12-04T04:20:53.593Z,19.90
2022-12-04T04:23:40.466Z,20.05
2022-12-04T04:26:08.903Z,20.13
2022-12-04T04:28:41.090Z,20.63
2022-12-04T04:31:26.070Z,20.48
2022-12-04T04:34:07.676Z,19.65
2022-12-04T04:36:59.435Z,20.45
2022-12-04T04:39:40.267Z,19.77
2022-12-04T04:42:17.669Z,19.63
2022-12-04T04:45:05.894Z,20.85
2022-12-04T04:47:58.479Z,19.65
2022-12-04T04:50:25.758Z,19.42
2022-12-04T04:52:58.907Z,21.08
2022-12-04T04:55:26.483Z,19.42
2022-12-04T04:57:53.274Z,18.33
2022-12-04T05:00:23.114Z,19.90
2022-12-04T05:02:50.473Z,19.60
2022-12-04T05:05:18.146Z,19.27
2022-12-04T05:07:45.026Z,20.08
2022-12-04T05:10:12.032Z,20.65
2022-12-04T05:12:38.914Z,20.00
2022-12-04T05:15:06.241Z,18.85
2022-12-04T05:17:35.559Z,18.70
2022-12-04T05:20:04.002Z,20.13
2022-12-04T05:22:33.511Z,20.10
2022-12-04T05:25:01.401Z,19.13
2022-12-04T05:27:30.254Z,19.65
2022-12-04T05:29:58.516Z,19.55
2022-12-04T05:32:27.766Z,19.63
2022-12-04T05:34:55.499Z,20.58
2022-12-04T05:37:22.711Z,19.70
2022-12-04T05:39:49.562Z,19.80
2022-12-04T05:42:16.371Z,20.27
2022-12-04T05:44:43.221Z,19.45
2022-12-04T05:47:10.238Z,20.13
2022-12-04T05:49:37.342Z,21.05
2022-12-04T05:52:05.961Z,20.08
2022-12-04T05:54:33.179Z,19.13
2022-12-04T05:57:00.034Z,18.90
2022-12-04T05:59:27.037Z,19.80
2022-12-04T06:01:53.970Z,18.25
2022-12-04T06:04:20.935Z,21.25
2022-12-04T06:06:47.915Z,19.75
2022-12-04T06:09:14.791Z,20.08
2022-12-04T06:11:42.906Z,21.02
2022-12-04T06:14:13.484Z,20.80
2022-12-04T06:16:43.159Z,21.38
2022-12-04T06:19:17.408Z,19.92
2022-12-04T06:21:46.242Z,19.67
2022-12-04T06:24:15.930Z,20.92
2022-12-04T06:27:04.115Z,20.27
2022-12-04T06:29:29.828Z,22.38
2022-12-04T06:31:56.842Z,19.70
2022-12-04T06:34:23.851Z,19.67
2022-12-04T06:36:50.733Z,20.90
2022-12-04T06:39:19.149Z,21.55
2022-12-04T06:41:47.579Z,21.52
2022-12-04T06:44:15.618Z,21.33
2022-12-04T06:46:46.768Z,21.23
2022-12-04T06:49:14.806Z,22.63
2022-12-04T06:51:41.899Z,20.63
2022-12-04T06:54:10.372Z,21.75
2022-12-04T06:56:37.365Z,22.17
2022-12-04T06:59:05.029Z,20.63
2022-12-04T07:01:34.216Z,20.77
2022-12-04T07:04:03.936Z,20.15
2022-12-04T07:06:36.221Z,22.00
2022-12-04T07:09:16.404Z,21.35
2022-12-04T07:11:44.519Z,21.58
2022-12-04T07:14:13.013Z,20.88
2022-12-04T07:16:42.203Z,21.48
2022-12-04T07:19:14.152Z,21.42
2022-12-04T07:21:42.319Z,20.70
2022-12-04T07:24:13.268Z,21.65
2022-12-04T07:26:40.152Z,21.00
2022-12-04T07:29:07.197Z,21.55
2022-12-04T07:31:34.115Z,20.75
2022-12-04T07:34:00.994Z,21.90
2022-12-04T07:36:27.978Z,21.75
2022-12-04T07:38:56.319Z,20.10
2022-12-04T07:41:23.929Z,20.73
2022-12-04T07:43:50.952Z,20.58
2022-12-04T07:46:23.675Z,20.38
2022-12-04T07:48:50.781Z,20.48
2022-12-04T07:51:22.645Z,20.40
2022-12-04T07:53:51.576Z,20.30
2022-12-04T07:56:19.238Z,21.23
2022-12-04T07:58:48.372Z,20.77
2022-12-04T08:01:23.274Z,20.98
2022-12-04T08:03:52.776Z,21.52
2022-12-04T08:06:22.145Z,20.88
2022-12-04T08:08:49.973Z,19.95
2022-12-04T08:11:20.172Z,21.55
2022-12-04T08:13:47.061Z,21.48
2022-12-04T08:16:14.787Z,21.95
2022-12-04T08:18:46.512Z,20.38
2022-12-04T08:21:16.290Z,23.23
2022-12-04T08:23:44.058Z,20.77
2022-12-04T08:26:12.167Z,20.88
2022-12-04T08:28:39.960Z,22.17
2022-12-04T08:31:10.755Z,22.17
2022-12-04T08:33:37.936Z,21.70
2022-12-04T08:36:09.888Z,21.45
2022-12-04T08:38:37.221Z,21.95
2022-12-04T08:41:06.737Z,22.33
2022-12-04T08:43:33.999Z,22.30
2022-12-04T08:46:03.483Z,23.00
2022-12-04T08:48:31.274Z,22.90
2022-12-04T08:50:58.315Z,20.42
2022-12-04T08:53:25.583Z,22.42
2022-12-04T08:55:53.188Z,22.30
2022-12-04T08:58:20.418Z,21.08
2022-12-04T09:00:47.707Z,23.38
2022-12-04T09:03:16.990Z,21.50
2022-12-04T09:05:46.018Z,21.30
2022-12-04T09:08:17.818Z,22.15
2022-12-04T09:10:45.048Z,22.65
2022-12-04T09:13:11.981Z,20.83
2022-12-04T09:15:40.409Z,21.55
2022-12-04T09:18:08.434Z,21.42
2022-12-04T09:20:35.769Z,22.15
2022-12-04T09:23:05.005Z,20.88
2022-12-04T09:25:36.047Z,21.50
2022-12-04T09:28:03.390Z,20.13
2022-12-04T09:30:30.678Z,20.15
2022-12-04T09:32:57.597Z,20.10
2022-12-04T09:35:24.465Z,20.40
2022-12-04T09:37:51.389Z,20.58
2022-12-04T09:40:37.598Z,19.67
2022-12-04T09:43:30.724Z,19.58
2022-12-04T09:46:08.966Z,19.90
2022-12-04T09:48:39.911Z,18.58
2022-12-04T09:51:16.627Z,20.90
2022-12-04T09:54:08.160Z,19.23
2022-12-04T09:56:35.585Z,20.45
2022-12-04T09:59:17.101Z,18.98
2022-12-04T10:01:52.064Z,20.13
2022-12-04T10:04:19.355Z,20.23
2022-12-04T10:06:57.882Z,20.35
2022-12-04T10:09:31.648Z,20.40
2022-12-04T10:12:25.360Z,20.90
2022-12-04T10:15:07.726Z,21.70
2022-12-04T10:17:53.244Z,19.00
2022-12-04T10:20:44.238Z,19.85
2022-12-04T10:23:42.846Z,19.85
2022-12-04T10:26:15.875Z,18.60
2022-12-04T10:28:53.513Z,18.73
2022-12-04T10:31:23.788Z,19.42
2022-12-04T10:34:20.870Z,19.85
2022-12-04T10:36:53.099Z,19.90
2022-12-04T10:39:37.549Z,19.63
2022-12-04T10:42:22.775Z,17.88
2022-12-04T10:44:49.666Z,17.73
2022-12-04T10:47:16.791Z,17.33
2022-12-04T10:49:43.658Z,18.52
2022-12-04T10:52:13.082Z,18.98
2022-12-04T10:54:45.239Z,16.30
2022-12-04T10:57:13.987Z,18.73
2022-12-04T10:59:50.874Z,17.27
2022-12-04T11:02:28.209Z,18.55
2022-12-04T11:04:57.171Z,17.75
2022-12-04T11:07:29.260Z,16.73
2022-12-04T11:10:37.711Z,17.05
2022-12-04T11:13:17.265Z,18.50
2022-12-04T11:15:50.167Z,16.52
2022-12-04T11:18:23.278Z,17.15
2022-12-04T11:21:01.600Z,18.75
2022-12-04T11:23:33.649Z,18.02
2022-12-04T11:26:05.850Z,17.55
2022-12-04T11:28:43.135Z,16.55
2022-12-04T11:31:16.616Z,16.30
2022-12-04T11:33:47.878Z,15.15
2022-12-04T11:36:28.716Z,15.80
2022-12-04T11:39:04.634Z,14.63
2022-12-04T11:41:33.228Z,16.00
2022-12-04T11:44:00.977Z,14.38
2022-12-04T11:46:31.441Z,14.75
2022-12-04T11:48:58.622Z,15.07
2022-12-04T11:51:50.421Z,15.82
2022-12-04T11:54:33.952Z,14.20
2022-12-04T11:57:19.011Z,14.80
2022-12-04T12:00:09.714Z,14.43
2022-12-04T12:02:54.544Z,14.88
2022-12-04T12:05:33.504Z,13.13
2022-12-04T12:08:23.059Z,13.80
2022-12-04T12:10:58.809Z,16.13
2022-12-04T12:13:47.132Z,14.43
2022-12-04T12:16:45.769Z,15.18
2022-12-04T12:19:31.537Z,14.80
2022-12-04T12:22:16.851Z,15.45
2022-12-04T12:25:09.571Z,14.43
2022-12-04T12:27:36.509Z,15.00
2022-12-04T12:30:15.609Z,13.98
2022-12-04T12:33:00.677Z,14.20
2022-12-04T12:35:33.253Z,14.65
2022-12-04T12:38:05.386Z,14.88
2022-12-04T12:40:32.272Z,12.40
2022-12-04T12:43:22.247Z,13.13
2022-12-04T12:45:52.197Z,13.48
2022-12-04T12:48:40.564Z,11.85
2022-12-04T12:51:31.965Z,11.85
2022-12-04T12:54:22.738Z,13.23
2022-12-04T12:56:56.957Z,12.55
2022-12-04T12:59:27.549Z,13.10
2022-12-04T13:02:08.519Z,12.25
2022-12-04T13:04:40.310Z,13.50
2022-12-04T13:07:20.706Z,12.73
2022-12-04T13:10:02.875Z,12.80
2022-12-04T13:12:34.612Z,12.63
2022-12-04T13:15:01.561Z,12.45
2022-12-04T13:17:35.136Z,11.98
2022-12-04T13:20:10.220Z,13.75
2022-12-04T13:23:12.602Z,13.90
2022-12-04T13:25:51.193Z,12.63
2022-12-04T13:28:42.534Z,13.30
2022-12-04T13:31:20.392Z,11.60
2022-12-04T13:33:53.237Z,12.02
2022-12-04T13:36:28.863Z,12.38
2022-12-04T13:39:07.434Z,12.15
2022-12-04T13:41:37.797Z,11.85
2022-12-04T13:44:14.741Z,12.07
2022-12-04T13:47:17.278Z,13.02
2022-12-04T13:49:46.122Z,11.80
2022-12-04T13:52:41.547Z,12.95
2022-12-04T13:55:25.406Z,11.75
2022-12-04T13:58:11.940Z,12.32
2022-12-04T14:00:43.710Z,11.43
2022-12-04T14:03:29.826Z,12.20
2022-12-04T14:05:57.004Z,11.52
2022-12-04T14:08:28.432Z,11.65
2022-12-04T14:11:03.140Z,10.75
2022-12-04T14:13:54.668Z,11.35
2022-12-04T14:16:26.784Z,12.05
2022-12-04T14:18:59.572Z,12.05
2022-12-04T14:21:37.786Z,11.30
2022-12-04T14:24:30.725Z,11.65
2022-12-04T14:27:12.283Z,12.98
2022-12-04T14:29:52.765Z,11.88
2022-12-04T14:32:25.451Z,12.15
2022-12-04T14:34:53.490Z,12.90
2022-12-04T14:37:37.554Z,12.63
2022-12-04T14:40:07.568Z,12.02
2022-12-04T14:42:38.363Z,11.70
2022-12-04T14:45:18.753Z,12.25
2022-12-04T14:48:04.071Z,11.27
2022-12-04T14:51:03.145Z,11.10
2022-12-04T14:53:57.277Z,11.88
2022-12-04T14:56:45.598Z,13.18
2022-12-04T14:59:21.926Z,12.40
2022-12-04T15:01:50.779Z,11.95
2022-12-04T15:04:32.863Z,12.10
2022-12-04T15:07:00.861Z,11.20
2022-12-04T15:09:47.478Z,11.50
2022-12-04T15:12:35.380Z,11.60
2022-12-04T15:15:25.058Z,11.43
2022-12-04T15:17:57.804Z,10.68
2022-12-04T15:20:25.376Z,10.73
2022-12-04T15:22:57.388Z,11.18
2022-12-04T15:25:28.051Z,10.60
2022-12-04T15:28:05.880Z,12.15
2022-12-04T15:30:34.932Z,11.15
2022-12-04T15:33:02.098Z,11.88
2022-12-04T15:35:32.845Z,11.93
2022-12-04T15:38:00.530Z,11.27
2022-12-04T15:40:29.484Z,10.63
2022-12-04T15:43:13.792Z,10.43
2022-12-04T15:45:41.551Z,10.38
2022-12-04T15:48:08.490Z,10.85
2022-12-04T15:50:35.747Z,11.65
2022-12-04T15:53:05.462Z,11.80
2022-12-04T15:55:53.695Z,10.57
2022-12-04T15:58:22.858Z,12.95
2022-12-04T16:01:02.602Z,24.63
2022-12-04T16:03:41.603Z,25.25
2022-12-04T16:06:18.208Z,19.45
2022-12-04T16:08:47.780Z,17.17
2022-12-04T16:11:20.537Z,15.90
2022-12-04T16:13:50.228Z,16.15
2022-12-04T16:16:20.577Z,17.55
2022-12-04T16:18:47.668Z,15.27
2022-12-04T16:21:17.793Z,14.85
2022-12-04T16:23:45.231Z,15.13
2022-12-04T16:26:14.740Z,15.35
2022-12-04T16:28:41.971Z,15.13
2022-12-04T16:31:13.179Z,15.60
2022-12-04T16:33:40.695Z,15.40
2022-12-04T16:36:10.210Z,17.38
2022-12-04T16:38:37.344Z,15.70
2022-12-04T16:41:12.952Z,14.52
2022-12-04T16:43:39.921Z,15.98
2022-12-04T16:46:11.860Z,14.70
2022-12-04T16:48:38.852Z,15.05
2022-12-04T16:51:05.815Z,14.98
2022-12-04T16:53:32.711Z,14.35
2022-12-04T16:55:59.601Z,14.50
2022-12-04T16:58:26.487Z,14.90
2022-12-04T17:00:56.289Z,14.98
2022-12-04T17:03:31.341Z,14.82
2022-12-04T17:06:00.357Z,15.68
2022-12-04T17:08:28.196Z,14.80
2022-12-04T17:10:55.076Z,15.95
2022-12-04T17:13:22.803Z,17.52
2022-12-04T17:15:49.829Z,16.90
2022-12-04T17:18:21.075Z,15.77
2022-12-04T17:20:48.598Z,13.55
2022-12-04T17:23:15.967Z,13.70
2022-12-04T17:25:42.810Z,13.55
2022-12-04T17:28:09.748Z,13.70
2022-12-04T17:30:38.931Z,14.52
2022-12-04T17:33:05.835Z,13.93
2022-12-04T17:35:32.703Z,15.10
2022-12-04T17:38:05.696Z,14.15
2022-12-04T17:40:34.056Z,14.00
2022-12-04T17:43:00.945Z,13.13
2022-12-04T17:45:28.720Z,13.48
2022-12-04T17:47:55.775Z,13.15
2022-12-04T17:50:22.848Z,14.10
2022-12-04T17:52:49.880Z,16.42
2022-12-04T17:55:16.789Z,14.23
2022-12-04T17:57:43.690Z,13.30
2022-12-04T18:00:11.150Z,14.70
2022-12-04T18:02:42.099Z,14.73
2022-12-04T18:05:09.826Z,13.98
2022-12-04T18:07:36.867Z,13.20
2022-12-04T18:10:04.140Z,14.10
2022-12-04T18:12:31.068Z,15.85
2022-12-04T18:14:58.298Z,14.43
2022-12-04T18:17:25.557Z,14.85
2022-12-04T18:19:52.512Z,15.45
2022-12-04T18:22:19.354Z,14.82
2022-12-04T18:24:46.281Z,17.10
2022-12-04T18:27:13.126Z,14.75
2022-12-04T18:29:41.551Z,20.00
2022-12-04T18:32:08.564Z,17.10
2022-12-04T18:34:35.506Z,16.08
2022-12-04T18:37:02.564Z,15.93
2022-12-04T18:39:29.478Z,15.88
2022-12-04T18:41:57.059Z,16.45
2022-12-04T18:44:24.238Z,15.05
2022-12-04T18:46:51.133Z,14.55
2022-12-04T18:49:17.961Z,15.50
2022-12-04T18:51:49.696Z,14.10
2022-12-04T18:54:23.193Z,15.23
2022-12-04T18:56:51.619Z,14.30
2022-12-04T18:59:21.965Z,14.60
2022-12-04T19:01:52.315Z,15.52
2022-12-04T19:04:21.059Z,14.32
2022-12-04T19:06:54.953Z,14.63
2022-12-04T19:10:02.058Z,14.65
2022-12-04T19:12:16.395Z,14.73
2022-12-04T19:14:43.212Z,14.00
2022-12-04T19:17:11.360Z,14.85
2022-12-04T19:19:38.241Z,15.48
2022-12-04T19:22:05.259Z,16.65
2022-12-04T19:24:32.340Z,13.82
2022-12-04T19:26:59.198Z,15.57
2022-12-04T19:29:26.224Z,15.07
2022-12-04T19:31:58.826Z,14.68
2022-12-04T19:34:26.773Z,14.60
2022-12-04T19:36:54.671Z,14.65
2022-12-04T19:39:21.529Z,15.38
2022-12-04T19:41:48.413Z,15.80
2022-12-04T19:44:47.438Z,15.25
2022-12-04T19:47:03.111Z,15.75
2022-12-04T19:49:30.058Z,17.40
2022-12-04T19:51:56.995Z,16.13
2022-12-04T19:54:24.637Z,15.07
2022-12-04T19:56:52.646Z,16.50
2022-12-04T19:59:20.541Z,16.02
2022-12-04T20:01:48.213Z,16.48
2022-12-04T20:04:15.869Z,16.50
2022-12-04T20:06:44.995Z,15.63
2022-12-04T20:09:16.257Z,21.65
2022-12-04T20:11:43.179Z,19.50
2022-12-04T20:14:10.370Z,17.60
2022-12-04T20:16:38.383Z,17.33
2022-12-04T20:19:07.427Z,16.75
2022-12-04T20:21:34.814Z,17.63
2022-12-04T20:24:04.594Z,18.38
2022-12-04T20:26:34.718Z,17.75
2022-12-04T20:29:02.106Z,20.40
2022-12-04T20:31:32.785Z,17.90
2022-12-04T20:34:01.879Z,17.25
2022-12-04T20:36:30.468Z,18.00
2022-12-04T20:38:59.041Z,16.50
2022-12-04T20:41:28.471Z,17.35
2022-12-04T20:43:56.316Z,20.70
2022-12-04T20:46:25.617Z,25.00
2022-12-04T20:48:53.652Z,19.83
2022-12-04T20:51:32.990Z,22.45
2022-12-04T20:54:01.430Z,22.83
2022-12-04T20:56:31.016Z,21.30
2022-12-04T20:59:00.007Z,19.42
2022-12-04T21:01:30.342Z,20.67
2022-12-04T21:03:59.244Z,20.20
2022-12-04T21:06:34.553Z,19.38
2022-12-04T21:09:07.255Z,19.60
2022-12-04T21:11:42.742Z,18.17
2022-12-04T21:14:36.711Z,18.23
2022-12-04T21:17:06.063Z,19.10
2022-12-04T21:19:33.122Z,17.25
2022-12-04T21:21:59.979Z,18.05
2022-12-04T21:24:26.892Z,17.23
2022-12-04T21:26:55.053Z,15.63
2022-12-04T21:29:22.302Z,15.90
2022-12-04T21:31:49.479Z,16.42
2022-12-04T21:34:17.513Z,15.73
2022-12-04T21:36:46.265Z,14.73
2022-12-04T21:39:14.389Z,15.30
2022-12-04T21:42:00.156Z,15.13
2022-12-04T21:44:27.566Z,15.05
2022-12-04T21:46:55.072Z,15.50
2022-12-04T21:49:22.764Z,16.35
2022-12-04T21:51:58.526Z,15.93
2022-12-04T21:54:27.975Z,15.73
2022-12-04T21:56:56.133Z,16.25
2022-12-04T21:59:24.395Z,16.15
2022-12-04T22:01:51.504Z,15.88
2022-12-04T22:04:18.505Z,20.65
2022-12-04T22:06:45.356Z,19.13
2022-12-04T22:09:13.061Z,20.30
2022-12-04T22:11:43.991Z,17.35
2022-12-04T22:14:11.933Z,16.40
2022-12-04T22:16:42.684Z,18.50
2022-12-04T22:19:12.035Z,22.05
2022-12-04T22:21:39.961Z,18.02
2022-12-04T22:24:07.413Z,18.02
2022-12-04T22:26:34.352Z,19.73
2022-12-04T22:29:03.164Z,18.00
2022-12-04T22:31:32.150Z,18.15
2022-12-04T22:34:01.468Z,19.48
2022-12-04T22:36:31.129Z,18.67
2022-12-04T22:39:09.446Z,18.80
2022-12-04T22:41:37.138Z,18.30
2022-12-04T22:44:04.337Z,19.75
2022-12-04T22:46:31.624Z,19.40
2022-12-04T22:48:59.443Z,19.40
2022-12-04T22:51:27.261Z,17.50
2022-12-04T22:53:56.906Z,18.70
2022-12-04T22:56:29.086Z,19.17
2022-12-04T22:58:57.976Z,19.45
2022-12-04T23:01:33.385Z,20.20
2022-12-04T23:04:01.441Z,18.38
2022-12-04T23:06:31.702Z,18.67
2022-12-04T23:09:07.993Z,18.27
2022-12-04T23:11:35.431Z,19.33
2022-12-04T23:14:04.849Z,17.73
2022-12-04T23:16:34.374Z,18.77
2022-12-04T23:19:01.343Z,19.25
2022-12-04T23:21:29.009Z,18.77
2022-12-04T23:23:57.002Z,17.90
2022-12-04T23:26:30.447Z,20.40
2022-12-04T23:28:57.840Z,18.60
2022-12-04T23:31:25.241Z,18.17
2022-12-04T23:33:52.119Z,19.05
2022-12-04T23:36:19.215Z,18.10
2022-12-04T23:38:46.809Z,18.17
2022-12-04T23:41:16.221Z,18.65
2022-12-04T23:43:44.006Z,18.58
2022-12-04T23:46:12.550Z,17.48
2022-12-04T23:48:41.027Z,17.15
2022-12-04T23:51:09.353Z,18.27
2022-12-04T23:53:36.792Z,18.10
2022-12-04T23:56:17.898Z,17.60
2022-12-04T23:58:46.038Z,16.83
